sensor_id;sensor_type;location;lat;lon;timestamp;pressure;altitude;pressure_sealevel;temperature;humidity
21185;BME280;18176;49.502;11.754;2023-08-30T00:00:45;96278.31;;;17.90;76.08
21185;BME280;18176;49.502;11.754;2023-08-30T00:04:48;96260.00;;;17.60;76.71
21185;BME280;18176;49.502;11.754;2023-08-30T00:08:49;96269.75;;;17.50;77.31
21185;BME280;18176;49.502;11.754;2023-08-30T00:12:50;96278.56;;;17.32;77.34
21185;BME280;18176;49.502;11.754;2023-08-30T00:16:50;96280.84;;;17.20;77.84
21185;BME280;18176;49.502;11.754;2023-08-30T00:20:53;96278.25;;;17.15;77.01
21185;BME280;18176;49.502;11.754;2023-08-30T00:24:54;96279.84;;;17.16;77.00
21185;BME280;18176;49.502;11.754;2023-08-30T00:28:54;96282.56;;;17.11;76.66
21185;BME280;18176;49.502;11.754;2023-08-30T00:32:55;96278.31;;;17.10;76.85
21185;BME280;18176;49.502;11.754;2023-08-30T00:36:58;96280.53;;;17.03;77.31
21185;BME280;18176;49.502;11.754;2023-08-30T00:40:59;96280.53;;;17.03;77.47
21185;BME280;18176;49.502;11.754;2023-08-30T00:45:01;96270.59;;;16.85;78.08
21185;BME280;18176;49.502;11.754;2023-08-30T00:49:04;96288.19;;;16.91;77.95
21185;BME280;18176;49.502;11.754;2023-08-30T00:53:08;96244.13;;;16.60;78.69
21185;BME280;18176;49.502;11.754;2023-08-30T00:57:09;96282.78;;;16.96;78.12
21185;BME280;18176;49.502;11.754;2023-08-30T01:01:10;96282.72;;;17.01;78.06
21185;BME280;18176;49.502;11.754;2023-08-30T01:05:12;96280.66;;;16.93;78.69
21185;BME280;18176;49.502;11.754;2023-08-30T01:09:16;96287.03;;;16.97;78.25
21185;BME280;18176;49.502;11.754;2023-08-30T01:13:19;96287.94;;;16.88;78.72
21185;BME280;18176;49.502;11.754;2023-08-30T01:17:23;96289.25;;;16.90;78.71
21185;BME280;18176;49.502;11.754;2023-08-30T01:21:37;96294.69;;;16.85;78.81
21185;BME280;18176;49.502;11.754;2023-08-30T01:25:55;96298.44;;;16.84;79.44
21185;BME280;18176;49.502;11.754;2023-08-30T01:30:01;96297.72;;;16.97;79.40
21185;BME280;18176;49.502;11.754;2023-08-30T01:34:03;96298.44;;;17.08;79.16
21185;BME280;18176;49.502;11.754;2023-08-30T01:38:04;96290.66;;;17.06;79.45
21185;BME280;18176;49.502;11.754;2023-08-30T01:42:07;96295.34;;;17.19;79.15
21185;BME280;18176;49.502;11.754;2023-08-30T01:46:11;96297.38;;;17.27;78.89
21185;BME280;18176;49.502;11.754;2023-08-30T01:50:16;96309.19;;;17.26;79.16
21185;BME280;18176;49.502;11.754;2023-08-30T01:54:19;96313.44;;;17.27;79.47
21185;BME280;18176;49.502;11.754;2023-08-30T01:58:20;96305.78;;;17.39;78.98
21185;BME280;18176;49.502;11.754;2023-08-30T02:02:23;96299.41;;;17.35;78.38
21185;BME280;18176;49.502;11.754;2023-08-30T02:06:29;96299.41;;;17.35;77.74
21185;BME280;18176;49.502;11.754;2023-08-30T02:10:35;96297.50;;;17.17;78.57
21185;BME280;18176;49.502;11.754;2023-08-30T02:14:41;96310.75;;;17.27;77.40
21185;BME280;18176;49.502;11.754;2023-08-30T02:18:46;96309.00;;;17.18;77.93
21185;BME280;18176;49.502;11.754;2023-08-30T02:22:47;96306.97;;;17.10;78.56
21185;BME280;18176;49.502;11.754;2023-08-30T02:26:47;96299.91;;;16.95;78.49
21185;BME280;18176;49.502;11.754;2023-08-30T02:30:47;96300.81;;;17.09;77.85
21185;BME280;18176;49.502;11.754;2023-08-30T02:34:52;96310.50;;;17.05;78.12
21185;BME280;18176;49.502;11.754;2023-08-30T02:38:52;96319.34;;;17.06;77.80
21185;BME280;18176;49.502;11.754;2023-08-30T02:42:53;96310.19;;;17.07;77.58
21185;BME280;18176;49.502;11.754;2023-08-30T02:46:53;96306.84;;;16.96;77.90
21185;BME280;18176;49.502;11.754;2023-08-30T02:50:56;96302.31;;;16.97;78.01
21185;BME280;18176;49.502;11.754;2023-08-30T02:54:56;96267.78;;;16.71;78.44
21185;BME280;18176;49.502;11.754;2023-08-30T02:58:56;96303.72;;;16.89;78.26
21185;BME280;18176;49.502;11.754;2023-08-30T03:02:57;96297.38;;;17.04;78.02
21185;BME280;18176;49.502;11.754;2023-08-30T03:07:01;96300.81;;;17.09;77.50
21185;BME280;18176;49.502;11.754;2023-08-30T03:11:10;96239.84;;;16.82;77.35
21185;BME280;18176;49.502;11.754;2023-08-30T03:15:16;96290.16;;;17.04;77.17
21185;BME280;18176;49.502;11.754;2023-08-30T03:19:17;96287.47;;;17.04;77.03
21185;BME280;18176;49.502;11.754;2023-08-30T03:23:20;96280.53;;;17.03;76.96
21185;BME280;18176;49.502;11.754;2023-08-30T03:27:20;96270.84;;;17.07;76.44
21185;BME280;18176;49.502;11.754;2023-08-30T03:31:21;96272.94;;;16.92;76.62
21185;BME280;18176;49.502;11.754;2023-08-30T03:35:22;96285.91;;;17.03;76.40
21185;BME280;18176;49.502;11.754;2023-08-30T03:39:25;96278.88;;;17.07;76.30
21185;BME280;18176;49.502;11.754;2023-08-30T03:43:25;96283.63;;;16.92;76.93
21185;BME280;18176;49.502;11.754;2023-08-30T03:47:26;96245.16;;;16.64;76.88
21185;BME280;18176;49.502;11.754;2023-08-30T03:51:26;96289.31;;;16.85;76.90
21185;BME280;18176;49.502;11.754;2023-08-30T03:55:29;96286.56;;;16.90;77.23
21185;BME280;18176;49.502;11.754;2023-08-30T03:59:29;96298.31;;;16.94;76.92
21185;BME280;18176;49.502;11.754;2023-08-30T04:03:30;96302.41;;;17.10;75.99
21185;BME280;18176;49.502;11.754;2023-08-30T04:07:31;96293.03;;;16.89;76.91
21185;BME280;18176;49.502;11.754;2023-08-30T04:11:34;96294.22;;;16.78;77.13
21185;BME280;18176;49.502;11.754;2023-08-30T04:15:35;96299.66;;;16.68;77.08
21185;BME280;18176;49.502;11.754;2023-08-30T04:19:37;96290.78;;;16.44;77.65
21185;BME280;18176;49.502;11.754;2023-08-30T04:23:38;96267.16;;;16.27;78.06
21185;BME280;18176;49.502;11.754;2023-08-30T04:27:41;96292.88;;;16.47;77.11
21185;BME280;18176;49.502;11.754;2023-08-30T04:31:43;96301.59;;;16.62;77.35
21185;BME280;18176;49.502;11.754;2023-08-30T04:35:43;96309.22;;;16.74;77.08
21185;BME280;18176;49.502;11.754;2023-08-30T04:39:47;96304.91;;;16.78;77.31
21185;BME280;18176;49.502;11.754;2023-08-30T04:43:50;96304.97;;;16.73;77.64
21185;BME280;18176;49.502;11.754;2023-08-30T04:47:51;96303.41;;;16.67;78.19
21185;BME280;18176;49.502;11.754;2023-08-30T04:51:52;96300.34;;;16.78;77.85
21185;BME280;18176;49.502;11.754;2023-08-30T04:55:53;96295.44;;;16.85;78.53
21185;BME280;18176;49.502;11.754;2023-08-30T04:59:56;96305.75;;;16.97;78.31
21185;BME280;18176;49.502;11.754;2023-08-30T05:04:01;96301.81;;;17.13;78.09
21185;BME280;18176;49.502;11.754;2023-08-30T05:08:03;96265.50;;;17.07;77.87
21185;BME280;18176;49.502;11.754;2023-08-30T05:12:05;96298.63;;;17.35;78.29
21185;BME280;18176;49.502;11.754;2023-08-30T05:16:09;96298.19;;;17.46;78.75
21185;BME280;18176;49.502;11.754;2023-08-30T05:20:10;96296.94;;;17.63;78.47
21185;BME280;18176;49.502;11.754;2023-08-30T05:24:10;96300.69;;;17.80;78.62
21185;BME280;18176;49.502;11.754;2023-08-30T05:28:11;96296.97;;;18.13;77.95
21185;BME280;18176;49.502;11.754;2023-08-30T05:32:14;96290.53;;;18.28;77.09
21185;BME280;18176;49.502;11.754;2023-08-30T05:36:37;96294.16;;;18.37;77.72
21185;BME280;18176;49.502;11.754;2023-08-30T05:40:56;96287.97;;;18.55;76.83
21185;BME280;18176;49.502;11.754;2023-08-30T05:44:58;96291.28;;;18.79;77.71
21185;BME280;18176;49.502;11.754;2023-08-30T05:49:01;96272.38;;;18.57;76.94
21185;BME280;18176;49.502;11.754;2023-08-30T05:53:03;96289.69;;;18.78;76.56
21185;BME280;18176;49.502;11.754;2023-08-30T05:57:05;96294.09;;;19.15;75.91
21185;BME280;18176;49.502;11.754;2023-08-30T06:01:06;96293.66;;;19.49;73.95
21185;BME280;18176;49.502;11.754;2023-08-30T06:05:09;96287.47;;;19.62;72.52
21185;BME280;18176;49.502;11.754;2023-08-30T06:09:10;96289.88;;;19.64;72.28
21185;BME280;18176;49.502;11.754;2023-08-30T06:13:11;96291.03;;;19.71;69.52
21185;BME280;18176;49.502;11.754;2023-08-30T06:17:11;96291.97;;;19.89;69.06
21185;BME280;18176;49.502;11.754;2023-08-30T06:21:14;96291.06;;;20.38;68.22
21185;BME280;18176;49.502;11.754;2023-08-30T06:25:15;96290.34;;;20.46;65.78
21185;BME280;18176;49.502;11.754;2023-08-30T06:29:15;96285.22;;;20.97;65.14
21185;BME280;18176;49.502;11.754;2023-08-30T06:33:16;96288.69;;;20.97;64.72
21185;BME280;18176;49.502;11.754;2023-08-30T06:37:19;96290.06;;;21.09;63.83
21185;BME280;18176;49.502;11.754;2023-08-30T06:41:19;96294.88;;;20.98;63.24
21185;BME280;18176;49.502;11.754;2023-08-30T06:45:21;96240.63;;;21.13;63.10
21185;BME280;18176;49.502;11.754;2023-08-30T06:49:21;96291.81;;;21.87;60.71
21185;BME280;18176;49.502;11.754;2023-08-30T06:53:24;96292.78;;;22.08;59.11
21185;BME280;18176;49.502;11.754;2023-08-30T06:57:25;96281.91;;;21.74;59.98
21185;BME280;18176;49.502;11.754;2023-08-30T07:01:25;96283.88;;;21.99;59.46
21185;BME280;18176;49.502;11.754;2023-08-30T07:05:25;96282.59;;;22.22;58.12
21185;BME280;18176;49.502;11.754;2023-08-30T07:09:28;96280.66;;;22.31;57.63
21185;BME280;18176;49.502;11.754;2023-08-30T07:13:30;96288.91;;;21.75;58.51
21185;BME280;18176;49.502;11.754;2023-08-30T07:17:31;96281.31;;;21.77;59.47
21185;BME280;18176;49.502;11.754;2023-08-30T07:21:50;96276.72;;;22.11;58.09
21185;BME280;18176;49.502;11.754;2023-08-30T07:25:54;96276.88;;;22.32;57.35
21185;BME280;18176;49.502;11.754;2023-08-30T07:29:54;96275.94;;;22.28;57.73
21185;BME280;18176;49.502;11.754;2023-08-30T07:33:55;96273.47;;;22.52;56.73
21185;BME280;18176;49.502;11.754;2023-08-30T07:37:56;96249.84;;;22.49;55.23
21185;BME280;18176;49.502;11.754;2023-08-30T07:41:59;96280.41;;;23.17;54.69
21185;BME280;18176;49.502;11.754;2023-08-30T07:46:00;96278.97;;;23.78;52.94
21185;BME280;18176;49.502;11.754;2023-08-30T07:50:01;96275.91;;;23.38;53.17
21185;BME280;18176;49.502;11.754;2023-08-30T07:54:01;96270.81;;;23.28;53.54
21185;BME280;18176;49.502;11.754;2023-08-30T07:58:04;96273.97;;;23.00;54.30
21185;BME280;18176;49.502;11.754;2023-08-30T08:02:07;96280.31;;;22.58;54.48
21185;BME280;18176;49.502;11.754;2023-08-30T08:06:07;96275.53;;;22.72;54.24
21185;BME280;18176;49.502;11.754;2023-08-30T08:10:09;96272.88;;;23.60;53.36
21185;BME280;18176;49.502;11.754;2023-08-30T08:14:12;96282.00;;;23.76;50.02
21185;BME280;18176;49.502;11.754;2023-08-30T08:18:15;96280.47;;;24.61;48.26
21185;BME280;18176;49.502;11.754;2023-08-30T08:22:15;96280.16;;;24.63;48.65
21185;BME280;18176;49.502;11.754;2023-08-30T08:26:16;96284.09;;;25.10;47.46
21185;BME280;18176;49.502;11.754;2023-08-30T08:30:19;96271.31;;;25.71;45.38
21185;BME280;18176;49.502;11.754;2023-08-30T08:34:20;96276.28;;;26.21;44.69
21185;BME280;18176;49.502;11.754;2023-08-30T08:38:22;96265.81;;;25.55;45.05
21185;BME280;18176;49.502;11.754;2023-08-30T08:42:23;96274.03;;;25.71;45.24
21185;BME280;18176;49.502;11.754;2023-08-30T08:46:28;96271.81;;;26.56;44.23
21185;BME280;18176;49.502;11.754;2023-08-30T08:50:30;96268.00;;;25.90;43.69
21185;BME280;18176;49.502;11.754;2023-08-30T08:54:32;96239.34;;;25.28;43.64
21185;BME280;18176;49.502;11.754;2023-08-30T08:58:32;96246.13;;;25.22;44.17
21185;BME280;18176;49.502;11.754;2023-08-30T09:02:37;96261.41;;;26.58;42.24
21185;BME280;18176;49.502;11.754;2023-08-30T09:06:39;96246.69;;;27.22;40.05
21185;BME280;18176;49.502;11.754;2023-08-30T09:10:41;96251.97;;;26.83;39.12
21185;BME280;18176;49.502;11.754;2023-08-30T09:14:54;96247.00;;;26.58;41.01
21185;BME280;18176;49.502;11.754;2023-08-30T09:19:02;96254.38;;;28.01;40.41
21185;BME280;18176;49.502;11.754;2023-08-30T09:23:17;96267.88;;;28.13;38.27
21185;BME280;18176;49.502;11.754;2023-08-30T09:27:18;96255.31;;;26.92;39.99
21185;BME280;18176;49.502;11.754;2023-08-30T09:31:19;96226.78;;;26.00;41.01
21185;BME280;18176;49.502;11.754;2023-08-30T09:35:22;96230.28;;;26.71;40.54
21185;BME280;18176;49.502;11.754;2023-08-30T09:39:22;96248.19;;;26.72;40.39
21185;BME280;18176;49.502;11.754;2023-08-30T09:43:23;96250.75;;;27.78;38.76
21185;BME280;18176;49.502;11.754;2023-08-30T09:47:24;96249.91;;;26.49;39.78
21185;BME280;18176;49.502;11.754;2023-08-30T09:51:29;96256.06;;;25.42;42.26
21185;BME280;18176;49.502;11.754;2023-08-30T09:55:30;96253.16;;;25.23;42.50
21185;BME280;18176;49.502;11.754;2023-08-30T09:59:32;96253.81;;;25.20;42.50
21185;BME280;18176;49.502;11.754;2023-08-30T10:03:35;96257.06;;;23.91;45.12
21185;BME280;18176;49.502;11.754;2023-08-30T10:07:39;96247.63;;;24.51;44.92
21185;BME280;18176;49.502;11.754;2023-08-30T10:11:40;96249.81;;;23.83;46.58
21185;BME280;18176;49.502;11.754;2023-08-30T10:15:45;96253.16;;;23.39;46.72
21185;BME280;18176;49.502;11.754;2023-08-30T10:19:47;96243.88;;;24.10;47.47
21185;BME280;18176;49.502;11.754;2023-08-30T10:23:53;96225.50;;;26.37;41.44
21185;BME280;18176;49.502;11.754;2023-08-30T10:27:55;96227.50;;;27.14;37.99
21185;BME280;18176;49.502;11.754;2023-08-30T10:32:01;96227.84;;;28.17;38.05
21185;BME280;18176;49.502;11.754;2023-08-30T10:36:06;96215.16;;;29.12;35.78
21185;BME280;18176;49.502;11.754;2023-08-30T10:40:10;96199.81;;;29.79;34.05
21185;BME280;18176;49.502;11.754;2023-08-30T10:44:14;96225.34;;;30.27;33.65
21185;BME280;18176;49.502;11.754;2023-08-30T10:48:19;96224.38;;;30.82;31.75
21185;BME280;18176;49.502;11.754;2023-08-30T10:52:20;96235.28;;;31.70;30.49
21185;BME280;18176;49.502;11.754;2023-08-30T10:56:28;96226.28;;;31.18;30.82
21185;BME280;18176;49.502;11.754;2023-08-30T11:00:32;96223.00;;;31.46;31.43
21185;BME280;18176;49.502;11.754;2023-08-30T11:04:33;96160.81;;;30.19;31.43
21185;BME280;18176;49.502;11.754;2023-08-30T11:08:39;96222.66;;;30.67;31.51
21185;BME280;18176;49.502;11.754;2023-08-30T11:12:45;96226.84;;;29.35;32.26
21185;BME280;18176;49.502;11.754;2023-08-30T11:16:47;96226.16;;;27.55;35.33
21185;BME280;18176;49.502;11.754;2023-08-30T11:20:47;96207.16;;;27.08;37.22
21185;BME280;18176;49.502;11.754;2023-08-30T11:24:48;96165.69;;;27.65;35.13
21185;BME280;18176;49.502;11.754;2023-08-30T11:28:52;96202.09;;;29.77;33.82
21185;BME280;18176;49.502;11.754;2023-08-30T11:32:52;96211.81;;;30.04;32.07
21185;BME280;18176;49.502;11.754;2023-08-30T11:36:52;96213.72;;;29.18;33.46
21185;BME280;18176;49.502;11.754;2023-08-30T11:40:57;96206.31;;;28.96;33.42
21185;BME280;18176;49.502;11.754;2023-08-30T11:45:01;96200.81;;;29.41;32.95
21185;BME280;18176;49.502;11.754;2023-08-30T11:49:03;96195.06;;;30.39;32.28
21185;BME280;18176;49.502;11.754;2023-08-30T11:53:04;96199.34;;;30.07;32.29
21185;BME280;18176;49.502;11.754;2023-08-30T11:57:05;96192.41;;;30.16;32.30
21185;BME280;18176;49.502;11.754;2023-08-30T12:01:08;96194.88;;;30.25;32.37
21185;BME280;18176;49.502;11.754;2023-08-30T12:05:11;96169.78;;;29.53;33.30
21185;BME280;18176;49.502;11.754;2023-08-30T12:09:13;96175.31;;;28.17;34.37
21185;BME280;18176;49.502;11.754;2023-08-30T12:13:23;96163.50;;;26.70;37.87
21185;BME280;18176;49.502;11.754;2023-08-30T12:17:26;96205.13;;;27.05;38.00
21185;BME280;18176;49.502;11.754;2023-08-30T12:21:26;96198.78;;;27.17;38.17
21185;BME280;18176;49.502;11.754;2023-08-30T12:25:27;96204.34;;;26.89;38.59
21185;BME280;18176;49.502;11.754;2023-08-30T12:29:28;96198.69;;;26.20;39.73
21185;BME280;18176;49.502;11.754;2023-08-30T12:33:31;96183.66;;;27.00;38.65
21185;BME280;18176;49.502;11.754;2023-08-30T12:37:33;96197.69;;;27.02;39.03
21185;BME280;18176;49.502;11.754;2023-08-30T12:41:33;96153.44;;;26.86;37.27
21185;BME280;18176;49.502;11.754;2023-08-30T12:45:34;96186.38;;;28.92;35.41
21185;BME280;18176;49.502;11.754;2023-08-30T12:49:37;96179.44;;;31.31;32.03
21185;BME280;18176;49.502;11.754;2023-08-30T12:53:37;96184.75;;;32.82;28.41
21185;BME280;18176;49.502;11.754;2023-08-30T12:57:37;96167.09;;;33.53;28.91
21185;BME280;18176;49.502;11.754;2023-08-30T13:01:37;96182.28;;;33.93;28.34
21185;BME280;18176;49.502;11.754;2023-08-30T13:05:41;96167.00;;;31.40;30.81
21185;BME280;18176;49.502;11.754;2023-08-30T13:09:42;96168.47;;;30.36;33.12
21185;BME280;18176;49.502;11.754;2023-08-30T13:13:42;96170.63;;;30.23;33.39
21185;BME280;18176;49.502;11.754;2023-08-30T13:17:44;96175.03;;;28.90;34.18
21185;BME280;18176;49.502;11.754;2023-08-30T13:21:47;96163.47;;;28.51;34.74
21185;BME280;18176;49.502;11.754;2023-08-30T13:25:48;96157.41;;;29.62;35.46
21185;BME280;18176;49.502;11.754;2023-08-30T13:29:50;96155.28;;;30.45;34.67
21185;BME280;18176;49.502;11.754;2023-08-30T13:33:50;96153.00;;;30.50;34.10
21185;BME280;18176;49.502;11.754;2023-08-30T13:37:53;96161.31;;;30.28;33.83
21185;BME280;18176;49.502;11.754;2023-08-30T13:41:54;96157.34;;;29.03;35.63
21185;BME280;18176;49.502;11.754;2023-08-30T13:45:58;96153.66;;;28.69;36.52
21185;BME280;18176;49.502;11.754;2023-08-30T13:50:00;96125.66;;;27.85;36.97
21185;BME280;18176;49.502;11.754;2023-08-30T13:54:04;96156.59;;;27.77;36.84
21185;BME280;18176;49.502;11.754;2023-08-30T13:58:05;96158.25;;;27.28;37.44
21185;BME280;18176;49.502;11.754;2023-08-30T14:02:06;96155.25;;;26.51;39.26
21185;BME280;18176;49.502;11.754;2023-08-30T14:06:06;96153.47;;;26.00;40.36
21185;BME280;18176;49.502;11.754;2023-08-30T14:10:09;96150.28;;;25.54;40.74
21185;BME280;18176;49.502;11.754;2023-08-30T14:14:17;96151.44;;;25.41;41.56
21185;BME280;18176;49.502;11.754;2023-08-30T14:18:18;96149.59;;;25.57;40.68
21185;BME280;18176;49.502;11.754;2023-08-30T14:22:18;96165.47;;;25.19;41.23
21185;BME280;18176;49.502;11.754;2023-08-30T14:26:21;96163.41;;;25.52;41.37
21185;BME280;18176;49.502;11.754;2023-08-30T14:30:22;96165.25;;;25.76;41.25
21185;BME280;18176;49.502;11.754;2023-08-30T14:34:22;96164.38;;;26.43;39.22
21185;BME280;18176;49.502;11.754;2023-08-30T14:38:22;96160.75;;;27.01;38.40
21185;BME280;18176;49.502;11.754;2023-08-30T14:42:26;96168.50;;;27.88;36.86
21185;BME280;18176;49.502;11.754;2023-08-30T14:46:26;96152.69;;;28.81;36.54
21185;BME280;18176;49.502;11.754;2023-08-30T14:50:27;96152.09;;;29.17;35.42
21185;BME280;18176;49.502;11.754;2023-08-30T14:54:27;96149.47;;;29.24;34.90
21185;BME280;18176;49.502;11.754;2023-08-30T14:58:30;96156.44;;;29.48;34.80
21185;BME280;18176;49.502;11.754;2023-08-30T15:02:30;96150.94;;;29.44;35.44
21185;BME280;18176;49.502;11.754;2023-08-30T15:06:31;96151.91;;;28.80;35.95
21185;BME280;18176;49.502;11.754;2023-08-30T15:10:31;96161.19;;;28.11;36.98
21185;BME280;18176;49.502;11.754;2023-08-30T15:14:35;96151.88;;;28.58;37.69
21185;BME280;18176;49.502;11.754;2023-08-30T15:18:38;96150.50;;;29.16;35.96
21185;BME280;18176;49.502;11.754;2023-08-30T15:22:39;96152.56;;;29.49;35.95
21185;BME280;18176;49.502;11.754;2023-08-30T15:26:39;96159.22;;;28.53;33.88
21185;BME280;18176;49.502;11.754;2023-08-30T15:30:45;96169.66;;;28.06;35.00
21185;BME280;18176;49.502;11.754;2023-08-30T15:34:48;96167.25;;;27.47;35.34
21185;BME280;18176;49.502;11.754;2023-08-30T15:38:49;96169.59;;;26.98;36.09
21185;BME280;18176;49.502;11.754;2023-08-30T15:42:49;96157.47;;;26.77;36.77
21185;BME280;18176;49.502;11.754;2023-08-30T15:46:52;96158.13;;;26.58;36.84
21185;BME280;18176;49.502;11.754;2023-08-30T15:50:52;96123.09;;;25.94;37.43
21185;BME280;18176;49.502;11.754;2023-08-30T15:54:52;96169.63;;;25.81;38.03
21185;BME280;18176;49.502;11.754;2023-08-30T15:58:53;96167.06;;;25.08;39.77
21185;BME280;18176;49.502;11.754;2023-08-30T16:02:56;96169.94;;;25.51;39.21
21185;BME280;18176;49.502;11.754;2023-08-30T16:06:57;96160.50;;;26.01;38.96
21185;BME280;18176;49.502;11.754;2023-08-30T16:10:58;96154.72;;;26.02;39.04
21185;BME280;18176;49.502;11.754;2023-08-30T16:14:58;96159.78;;;25.36;41.51
21185;BME280;18176;49.502;11.754;2023-08-30T16:19:02;96132.63;;;24.84;42.78
21185;BME280;18176;49.502;11.754;2023-08-30T16:23:03;96163.69;;;24.99;43.03
21185;BME280;18176;49.502;11.754;2023-08-30T16:27:04;96161.66;;;25.08;43.78
21185;BME280;18176;49.502;11.754;2023-08-30T16:31:06;96176.53;;;24.54;45.42
21185;BME280;18176;49.502;11.754;2023-08-30T16:35:10;96171.50;;;24.19;46.66
21185;BME280;18176;49.502;11.754;2023-08-30T16:39:10;96173.38;;;23.86;47.71
21185;BME280;18176;49.502;11.754;2023-08-30T16:43:10;96166.00;;;23.74;48.10
21185;BME280;18176;49.502;11.754;2023-08-30T16:47:11;96178.53;;;23.79;48.46
21185;BME280;18176;49.502;11.754;2023-08-30T16:51:14;96177.50;;;23.51;49.33
21185;BME280;18176;49.502;11.754;2023-08-30T16:55:15;96175.09;;;23.29;49.98
21185;BME280;18176;49.502;11.754;2023-08-30T16:59:17;96175.25;;;23.03;51.10
21185;BME280;18176;49.502;11.754;2023-08-30T17:03:17;96185.50;;;22.97;51.86
21185;BME280;18176;49.502;11.754;2023-08-30T17:07:20;96177.56;;;22.92;52.02
21185;BME280;18176;49.502;11.754;2023-08-30T17:11:21;96179.94;;;22.94;52.37
21185;BME280;18176;49.502;11.754;2023-08-30T17:15:21;96183.56;;;23.27;51.93
21185;BME280;18176;49.502;11.754;2023-08-30T17:19:22;96186.22;;;23.36;52.39
21185;BME280;18176;49.502;11.754;2023-08-30T17:23:25;96178.84;;;23.45;51.40
21185;BME280;18176;49.502;11.754;2023-08-30T17:27:25;96175.84;;;23.38;52.29
21185;BME280;18176;49.502;11.754;2023-08-30T17:31:26;96136.44;;;23.37;51.46
21185;BME280;18176;49.502;11.754;2023-08-30T17:35:30;96180.81;;;23.56;51.88
21185;BME280;18176;49.502;11.754;2023-08-30T17:39:34;96164.69;;;22.60;54.26
21185;BME280;18176;49.502;11.754;2023-08-30T17:43:34;96140.50;;;22.72;54.49
21185;BME280;18176;49.502;11.754;2023-08-30T17:47:35;96147.19;;;22.66;54.82
21185;BME280;18176;49.502;11.754;2023-08-30T17:51:35;96128.81;;;22.51;55.18
21185;BME280;18176;49.502;11.754;2023-08-30T17:55:38;96149.72;;;22.25;56.70
21185;BME280;18176;49.502;11.754;2023-08-30T17:59:39;96163.38;;;22.20;56.89
21185;BME280;18176;49.502;11.754;2023-08-30T18:03:39;96124.59;;;21.69;57.65
21185;BME280;18176;49.502;11.754;2023-08-30T18:07:40;96153.47;;;21.60;58.56
21185;BME280;18176;49.502;11.754;2023-08-30T18:11:44;96171.69;;;21.46;59.30
21185;BME280;18176;49.502;11.754;2023-08-30T18:15:46;96144.56;;;21.34;58.87
21185;BME280;18176;49.502;11.754;2023-08-30T18:19:47;96164.53;;;21.16;59.63
21185;BME280;18176;49.502;11.754;2023-08-30T18:24:14;96152.66;;;21.09;59.55
21185;BME280;18176;49.502;11.754;2023-08-30T18:28:18;96193.72;;;21.23;59.36
21185;BME280;18176;49.502;11.754;2023-08-30T18:32:18;96187.97;;;21.07;60.06
21185;BME280;18176;49.502;11.754;2023-08-30T18:36:19;96159.72;;;20.79;60.33
21185;BME280;18176;49.502;11.754;2023-08-30T18:40:19;96193.19;;;20.95;60.48
21185;BME280;18176;49.502;11.754;2023-08-30T18:44:23;96218.16;;;20.78;61.06
21185;BME280;18176;49.502;11.754;2023-08-30T18:48:24;96212.31;;;20.85;61.06
21185;BME280;18176;49.502;11.754;2023-08-30T18:52:25;96181.28;;;20.48;60.58
21185;BME280;18176;49.502;11.754;2023-08-30T18:56:25;96208.38;;;20.52;61.07
21185;BME280;18176;49.502;11.754;2023-08-30T19:00:28;96225.19;;;20.57;61.02
21185;BME280;18176;49.502;11.754;2023-08-30T19:04:29;96205.25;;;20.27;61.29
21185;BME280;18176;49.502;11.754;2023-08-30T19:08:30;96237.81;;;20.26;62.05
21185;BME280;18176;49.502;11.754;2023-08-30T19:12:30;96211.28;;;20.33;61.62
21185;BME280;18176;49.502;11.754;2023-08-30T19:16:34;96182.88;;;20.18;62.18
21185;BME280;18176;49.502;11.754;2023-08-30T19:20:35;96190.44;;;20.16;62.44
21185;BME280;18176;49.502;11.754;2023-08-30T19:24:35;96226.09;;;20.44;62.58
21185;BME280;18176;49.502;11.754;2023-08-30T19:28:36;96223.38;;;20.44;62.43
21185;BME280;18176;49.502;11.754;2023-08-30T19:32:39;96171.91;;;19.84;63.38
21185;BME280;18176;49.502;11.754;2023-08-30T19:36:40;96215.88;;;20.10;63.19
21185;BME280;18176;49.502;11.754;2023-08-30T19:40:49;96211.16;;;20.16;62.89
21185;BME280;18176;49.502;11.754;2023-08-30T19:44:50;96195.97;;;19.89;63.10
21185;BME280;18176;49.502;11.754;2023-08-30T19:48:57;96199.38;;;20.03;62.86
21185;BME280;18176;49.502;11.754;2023-08-30T19:52:58;96175.66;;;20.05;62.40
21185;BME280;18176;49.502;11.754;2023-08-30T19:57:01;96215.16;;;20.18;63.04
21185;BME280;18176;49.502;11.754;2023-08-30T20:01:06;96232.63;;;20.29;62.58
21185;BME280;18176;49.502;11.754;2023-08-30T20:05:09;96227.75;;;20.09;62.88
21185;BME280;18176;49.502;11.754;2023-08-30T20:09:10;96175.31;;;19.76;62.55
21185;BME280;18176;49.502;11.754;2023-08-30T20:13:11;96238.56;;;20.18;62.71
21185;BME280;18176;49.502;11.754;2023-08-30T20:17:11;96205.16;;;19.66;63.22
21185;BME280;18176;49.502;11.754;2023-08-30T20:21:15;96204.41;;;19.52;63.33
21185;BME280;18176;49.502;11.754;2023-08-30T20:25:16;96241.88;;;19.57;63.37
21185;BME280;18176;49.502;11.754;2023-08-30T20:29:16;96204.66;;;19.15;63.71
21185;BME280;18176;49.502;11.754;2023-08-30T20:33:17;96236.16;;;19.23;64.01
21185;BME280;18176;49.502;11.754;2023-08-30T20:37:22;96247.69;;;19.50;63.52
21185;BME280;18176;49.502;11.754;2023-08-30T20:41:23;96238.94;;;19.45;63.33
21185;BME280;18176;49.502;11.754;2023-08-30T20:45:24;96195.28;;;19.26;62.84
21185;BME280;18176;49.502;11.754;2023-08-30T20:49:25;96243.47;;;19.58;62.71
21185;BME280;18176;49.502;11.754;2023-08-30T20:53:35;96237.50;;;19.61;62.23
21185;BME280;18176;49.502;11.754;2023-08-30T20:57:36;96210.09;;;19.37;62.97
21185;BME280;18176;49.502;11.754;2023-08-30T21:01:36;96248.19;;;19.39;63.51
21185;BME280;18176;49.502;11.754;2023-08-30T21:05:37;96242.94;;;19.34;63.51